sensor_id;sensor_type;location;lat;lon;timestamp;P1;P2;P0
67376;PMS7003;54261;46.086;6.588;2023-03-31T00:03:32;7.00;7.00;6.00
67376;PMS7003;54261;46.086;6.588;2023-03-31T00:08:35;11.67;7.33;5.67
67376;PMS7003;54261;46.086;6.588;2023-03-31T00:13:36;5.75;5.75;4.75
67376;PMS7003;54261;46.086;6.588;2023-03-31T00:18:39;5.25;5.00;4.00
67376;PMS7003;54261;46.086;6.588;2023-03-31T00:23:52;7.67;6.67;5.00
67376;PMS7003;54261;46.086;6.588;2023-03-31T00:28:56;10.75;9.25;8.25
67376;PMS7003;54261;46.086;6.588;2023-03-31T00:33:59;11.67;8.00;5.00
67376;PMS7003;54261;46.086;6.588;2023-03-31T00:39:02;14.50;13.00;8.75
67376;PMS7003;54261;46.086;6.588;2023-03-31T00:49:29;6.33;6.33;5.33
67376;PMS7003;54261;46.086;6.588;2023-03-31T00:54:34;12.00;8.67;7.00
67376;PMS7003;54261;46.086;6.588;2023-03-31T00:59:38;10.33;8.33;6.33
67376;PMS7003;54261;46.086;6.588;2023-03-31T01:04:45;5.67;5.33;5.00
67376;PMS7003;54261;46.086;6.588;2023-03-31T01:09:59;7.67;6.33;4.00
67376;PMS7003;54261;46.086;6.588;2023-03-31T01:15:04;9.33;9.33;6.00
67376;PMS7003;54261;46.086;6.588;2023-03-31T01:46:57;7.67;7.00;6.00
67376;PMS7003;54261;46.086;6.588;2023-03-31T01:52:25;8.33;7.00;6.00
67376;PMS7003;54261;46.086;6.588;2023-03-31T02:02:49;6.67;6.67;4.33
67376;PMS7003;54261;46.086;6.588;2023-03-31T02:08:21;7.00;7.00;6.00
67376;PMS7003;54261;46.086;6.588;2023-03-31T02:13:28;6.00;6.00;6.00
67376;PMS7003;54261;46.086;6.588;2023-03-31T02:18:34;6.00;6.00;3.33
67376;PMS7003;54261;46.086;6.588;2023-03-31T02:23:38;6.00;6.00;5.00
67376;PMS7003;54261;46.086;6.588;2023-03-31T02:28:41;8.00;8.00;6.00
67376;PMS7003;54261;46.086;6.588;2023-03-31T02:33:44;6.00;5.25;5.00
67376;PMS7003;54261;46.086;6.588;2023-03-31T02:38:50;4.75;3.25;3.00
67376;PMS7003;54261;46.086;6.588;2023-03-31T02:43:57;5.25;5.00;4.00
67376;PMS7003;54261;46.086;6.588;2023-03-31T02:49:00;4.00;4.00;3.50
67376;PMS7003;54261;46.086;6.588;2023-03-31T02:59:30;3.75;3.75;3.00
67376;PMS7003;54261;46.086;6.588;2023-03-31T03:10:27;3.75;3.00;2.00
67376;PMS7003;54261;46.086;6.588;2023-03-31T03:15:43;4.25;4.25;2.75
67376;PMS7003;54261;46.086;6.588;2023-03-31T03:20:48;6.00;5.25;4.00
67376;PMS7003;54261;46.086;6.588;2023-03-31T03:25:51;1.25;1.25;0.50
67376;PMS7003;54261;46.086;6.588;2023-03-31T03:30:53;0.00;0.00;0.00
67376;PMS7003;54261;46.086;6.588;2023-03-31T03:35:54;2.25;2.25;2.00
67376;PMS7003;54261;46.086;6.588;2023-03-31T03:40:56;3.75;3.25;2.00
67376;PMS7003;54261;46.086;6.588;2023-03-31T03:45:58;3.25;3.25;2.00
67376;PMS7003;54261;46.086;6.588;2023-03-31T03:51:00;3.25;3.25;2.50
67376;PMS7003;54261;46.086;6.588;2023-03-31T03:56:02;3.33;3.33;2.67
67376;PMS7003;54261;46.086;6.588;2023-03-31T04:01:04;3.75;3.25;2.00
67376;PMS7003;54261;46.086;6.588;2023-03-31T04:06:06;3.00;3.00;2.00
67376;PMS7003;54261;46.086;6.588;2023-03-31T04:11:10;7.75;7.75;4.00
67376;PMS7003;54261;46.086;6.588;2023-03-31T04:16:18;2.50;2.50;2.50
67376;PMS7003;54261;46.086;6.588;2023-03-31T04:21:20;9.25;4.50;4.00
67376;PMS7003;54261;46.086;6.588;2023-03-31T04:26:24;2.50;2.00;1.00
67376;PMS7003;54261;46.086;6.588;2023-03-31T04:31:31;3.00;3.00;2.00
67376;PMS7003;54261;46.086;6.588;2023-03-31T04:36:36;4.00;4.00;3.00
67376;PMS7003;54261;46.086;6.588;2023-03-31T04:41:43;5.00;5.00;4.25
67376;PMS7003;54261;46.086;6.588;2023-03-31T04:46:45;7.00;5.00;3.00
67376;PMS7003;54261;46.086;6.588;2023-03-31T04:51:47;6.75;5.00;4.00
67376;PMS7003;54261;46.086;6.588;2023-03-31T04:56:48;5.33;5.33;3.00
67376;PMS7003;54261;46.086;6.588;2023-03-31T05:01:50;4.00;4.00;2.75
67376;PMS7003;54261;46.086;6.588;2023-03-31T05:06:52;4.75;4.75;3.25
67376;PMS7003;54261;46.086;6.588;2023-03-31T05:11:54;4.50;3.75;3.25
67376;PMS7003;54261;46.086;6.588;2023-03-31T05:16:56;4.00;4.00;3.75
67376;PMS7003;54261;46.086;6.588;2023-03-31T05:21:59;4.75;3.75;2.00
67376;PMS7003;54261;46.086;6.588;2023-03-31T05:27:01;3.75;3.00;3.00
67376;PMS7003;54261;46.086;6.588;2023-03-31T05:32:03;4.75;3.75;3.00
67376;PMS7003;54261;46.086;6.588;2023-03-31T05:37:05;4.75;4.75;3.25
67376;PMS7003;54261;46.086;6.588;2023-03-31T05:42:07;3.33;1.33;1.00
67376;PMS7003;54261;46.086;6.588;2023-03-31T05:47:09;6.33;4.33;3.00
67376;PMS7003;54261;46.086;6.588;2023-03-31T05:52:11;9.50;8.50;5.00
67376;PMS7003;54261;46.086;6.588;2023-03-31T05:57:13;3.00;3.00;2.33
67376;PMS7003;54261;46.086;6.588;2023-03-31T06:02:15;5.33;5.33;4.00
67376;PMS7003;54261;46.086;6.588;2023-03-31T06:07:17;4.67;4.67;4.33
67376;PMS7003;54261;46.086;6.588;2023-03-31T06:12:19;4.33;4.33;4.00
67376;PMS7003;54261;46.086;6.588;2023-03-31T06:17:21;7.25;4.50;3.75
67376;PMS7003;54261;46.086;6.588;2023-03-31T06:22:23;4.75;4.75;3.00
67376;PMS7003;54261;46.086;6.588;2023-03-31T06:27:25;5.67;5.33;4.33
67376;PMS7003;54261;46.086;6.588;2023-03-31T06:32:27;6.25;6.25;5.00
67376;PMS7003;54261;46.086;6.588;2023-03-31T06:37:28;5.50;5.50;4.00
67376;PMS7003;54261;46.086;6.588;2023-03-31T06:42:31;6.75;5.00;3.75
67376;PMS7003;54261;46.086;6.588;2023-03-31T06:47:32;9.50;9.00;5.00
67376;PMS7003;54261;46.086;6.588;2023-03-31T06:52:35;3.00;3.00;3.00
67376;PMS7003;54261;46.086;6.588;2023-03-31T06:57:37;6.00;4.00;2.50
67376;PMS7003;54261;46.086;6.588;2023-03-31T07:02:39;10.00;8.75;7.25
67376;PMS7003;54261;46.086;6.588;2023-03-31T07:07:41;5.00;4.75;4.50
67376;PMS7003;54261;46.086;6.588;2023-03-31T07:12:46;8.75;8.75;6.25
67376;PMS7003;54261;46.086;6.588;2023-03-31T07:17:48;8.50;7.25;5.00
67376;PMS7003;54261;46.086;6.588;2023-03-31T07:22:51;10.25;9.25;5.75
67376;PMS7003;54261;46.086;6.588;2023-03-31T07:27:53;7.75;7.50;5.00
67376;PMS7003;54261;46.086;6.588;2023-03-31T07:32:55;10.50;8.00;5.50
67376;PMS7003;54261;46.086;6.588;2023-03-31T07:37:59;8.00;7.25;6.75
67376;PMS7003;54261;46.086;6.588;2023-03-31T07:43:01;8.00;7.00;4.00
67376;PMS7003;54261;46.086;6.588;2023-03-31T07:48:03;9.00;8.00;5.50
67376;PMS7003;54261;46.086;6.588;2023-03-31T07:53:05;16.50;15.75;12.00
67376;PMS7003;54261;46.086;6.588;2023-03-31T07:58:08;18.00;16.00;11.00
67376;PMS7003;54261;46.086;6.588;2023-03-31T08:03:12;14.50;12.00;9.00
67376;PMS7003;54261;46.086;6.588;2023-03-31T08:08:14;22.00;19.50;13.75
67376;PMS7003;54261;46.086;6.588;2023-03-31T08:13:16;20.50;18.00;11.75
67376;PMS7003;54261;46.086;6.588;2023-03-31T08:18:17;15.25;12.75;9.75
67376;PMS7003;54261;46.086;6.588;2023-03-31T08:23:20;19.25;16.75;11.00
67376;PMS7003;54261;46.086;6.588;2023-03-31T08:28:22;20.75;17.50;12.75
67376;PMS7003;54261;46.086;6.588;2023-03-31T08:33:24;21.25;21.00;16.25
67376;PMS7003;54261;46.086;6.588;2023-03-31T08:38:26;24.25;23.00;16.00
67376;PMS7003;54261;46.086;6.588;2023-03-31T08:43:29;19.75;19.75;15.75
67376;PMS7003;54261;46.086;6.588;2023-03-31T08:48:36;25.25;22.50;17.00
67376;PMS7003;54261;46.086;6.588;2023-03-31T08:54:04;19.00;18.50;13.75
67376;PMS7003;54261;46.086;6.588;2023-03-31T09:10:02;20.25;19.25;13.50
67376;PMS7003;54261;46.086;6.588;2023-03-31T09:15:32;25.00;20.75;15.50
67376;PMS7003;54261;46.086;6.588;2023-03-31T09:20:56;18.50;18.00;13.50
67376;PMS7003;54261;46.086;6.588;2023-03-31T09:26:12;21.00;19.50;15.00
67376;PMS7003;54261;46.086;6.588;2023-03-31T09:31:23;20.25;19.50;15.00
67376;PMS7003;54261;46.086;6.588;2023-03-31T09:36:25;19.00;18.50;14.50
67376;PMS7003;54261;46.086;6.588;2023-03-31T09:41:27;17.75;16.75;12.00
67376;PMS7003;54261;46.086;6.588;2023-03-31T09:46:30;20.50;19.50;14.25
67376;PMS7003;54261;46.086;6.588;2023-03-31T09:51:35;24.00;22.25;17.25
67376;PMS7003;54261;46.086;6.588;2023-03-31T10:01:45;24.00;22.75;16.00
67376;PMS7003;54261;46.086;6.588;2023-03-31T10:06:50;20.25;19.25;15.50
67376;PMS7003;54261;46.086;6.588;2023-03-31T10:11:57;22.00;21.25;14.75
67376;PMS7003;54261;46.086;6.588;2023-03-31T10:17:26;19.25;17.75;13.50
67376;PMS7003;54261;46.086;6.588;2023-03-31T10:22:29;12.75;12.25;7.50
67376;PMS7003;54261;46.086;6.588;2023-03-31T10:27:32;20.25;18.75;15.50
67376;PMS7003;54261;46.086;6.588;2023-03-31T10:32:40;15.25;13.00;8.75
67376;PMS7003;54261;46.086;6.588;2023-03-31T10:37:43;19.00;16.50;12.75
67376;PMS7003;54261;46.086;6.588;2023-03-31T10:48:30;23.25;19.50;13.50
67376;PMS7003;54261;46.086;6.588;2023-03-31T10:54:08;22.25;22.00;17.00
67376;PMS7003;54261;46.086;6.588;2023-03-31T11:09:30;16.50;15.25;10.75
67376;PMS7003;54261;46.086;6.588;2023-03-31T11:40:57;7.25;4.75;3.75
67376;PMS7003;54261;46.086;6.588;2023-03-31T11:46:04;4.50;4.00;3.00
67376;PMS7003;54261;46.086;6.588;2023-03-31T11:51:13;10.75;10.75;8.00
67376;PMS7003;54261;46.086;6.588;2023-03-31T11:56:21;16.50;15.00;10.25
67376;PMS7003;54261;46.086;6.588;2023-03-31T12:06:57;14.25;14.25;11.00
67376;PMS7003;54261;46.086;6.588;2023-03-31T12:12:14;9.25;8.50;7.25
67376;PMS7003;54261;46.086;6.588;2023-03-31T12:17:26;15.25;13.50;11.00
67376;PMS7003;54261;46.086;6.588;2023-03-31T12:27:36;5.25;3.50;3.00
67376;PMS7003;54261;46.086;6.588;2023-03-31T12:32:45;4.50;4.50;3.75
67376;PMS7003;54261;46.086;6.588;2023-03-31T12:53:42;8.00;8.00;4.25
67376;PMS7003;54261;46.086;6.588;2023-03-31T12:59:16;3.00;2.00;1.00
67376;PMS7003;54261;46.086;6.588;2023-03-31T13:04:32;2.00;2.00;2.00
67376;PMS7003;54261;46.086;6.588;2023-03-31T13:09:41;1.00;0.25;0.00
67376;PMS7003;54261;46.086;6.588;2023-03-31T13:14:46;3.00;2.00;1.75
67376;PMS7003;54261;46.086;6.588;2023-03-31T13:19:52;3.00;3.00;2.25
67376;PMS7003;54261;46.086;6.588;2023-03-31T13:25:24;3.75;1.50;1.25
67376;PMS7003;54261;46.086;6.588;2023-03-31T13:30:43;6.00;6.00;3.50
67376;PMS7003;54261;46.086;6.588;2023-03-31T13:35:47;3.00;2.00;2.00
67376;PMS7003;54261;46.086;6.588;2023-03-31T13:46:18;5.00;4.50;3.25
67376;PMS7003;54261;46.086;6.588;2023-03-31T14:07:14;4.50;4.50;3.00
67376;PMS7003;54261;46.086;6.588;2023-03-31T14:12:28;4.00;4.00;3.00
67376;PMS7003;54261;46.086;6.588;2023-03-31T14:17:33;3.00;3.00;2.25
67376;PMS7003;54261;46.086;6.588;2023-03-31T14:22:54;5.00;4.75;3.00
67376;PMS7003;54261;46.086;6.588;2023-03-31T14:38:41;6.50;4.50;3.00
67376;PMS7003;54261;46.086;6.588;2023-03-31T14:43:45;4.00;4.00;3.00
67376;PMS7003;54261;46.086;6.588;2023-03-31T14:48:51;5.67;4.33;3.33
67376;PMS7003;54261;46.086;6.588;2023-03-31T14:53:59;4.00;3.67;3.00
67376;PMS7003;54261;46.086;6.588;2023-03-31T14:59:02;4.33;3.67;3.33
67376;PMS7003;54261;46.086;6.588;2023-03-31T15:04:07;8.33;5.00;4.00
67376;PMS7003;54261;46.086;6.588;2023-03-31T15:09:23;3.33;3.33;2.33
67376;PMS7003;54261;46.086;6.588;2023-03-31T15:14:31;5.75;3.75;2.25
67376;PMS7003;54261;46.086;6.588;2023-03-31T15:19:36;4.00;4.00;3.00
67376;PMS7003;54261;46.086;6.588;2023-03-31T15:24:38;5.75;4.00;3.00
67376;PMS7003;54261;46.086;6.588;2023-03-31T15:29:41;3.00;3.00;2.00
67376;PMS7003;54261;46.086;6.588;2023-03-31T15:34:57;2.75;2.75;2.50
67376;PMS7003;54261;46.086;6.588;2023-03-31T15:50:31;1.00;1.00;0.00
67376;PMS7003;54261;46.086;6.588;2023-03-31T15:55:39;4.00;4.00;3.00
67376;PMS7003;54261;46.086;6.588;2023-03-31T16:00:50;2.00;1.00;1.00
67376;PMS7003;54261;46.086;6.588;2023-03-31T16:05:53;1.00;1.00;0.75
67376;PMS7003;54261;46.086;6.588;2023-03-31T16:11:03;0.00;0.00;0.00
67376;PMS7003;54261;46.086;6.588;2023-03-31T16:16:12;2.00;1.00;0.00
67376;PMS7003;54261;46.086;6.588;2023-03-31T16:21:19;1.00;1.00;1.00
67376;PMS7003;54261;46.086;6.588;2023-03-31T16:26:25;1.00;0.00;0.00
67376;PMS7003;54261;46.086;6.588;2023-03-31T16:31:30;0.00;0.00;0.00
67376;PMS7003;54261;46.086;6.588;2023-03-31T16:36:37;0.00;0.00;0.00
67376;PMS7003;54261;46.086;6.588;2023-03-31T16:41:39;2.75;0.50;0.00
67376;PMS7003;54261;46.086;6.588;2023-03-31T16:46:41;0.50;0.00;0.00
67376;PMS7003;54261;46.086;6.588;2023-03-31T16:51:43;1.00;1.00;0.00
67376;PMS7003;54261;46.086;6.588;2023-03-31T16:56:45;0.25;0.00;0.00
67376;PMS7003;54261;46.086;6.588;2023-03-31T17:01:48;0.00;0.00;0.00
67376;PMS7003;54261;46.086;6.588;2023-03-31T17:06:51;0.00;0.00;0.00
67376;PMS7003;54261;46.086;6.588;2023-03-31T17:11:53;3.00;3.00;2.50
67376;PMS7003;54261;46.086;6.588;2023-03-31T17:16:55;7.00;6.50;5.50
67376;PMS7003;54261;46.086;6.588;2023-03-31T17:21:57;0.00;0.00;0.00
67376;PMS7003;54261;46.086;6.588;2023-03-31T17:27:02;3.50;3.50;2.50
67376;PMS7003;54261;46.086;6.588;2023-03-31T17:32:04;0.00;0.00;0.00
67376;PMS7003;54261;46.086;6.588;2023-03-31T17:37:06;2.00;2.00;1.00
67376;PMS7003;54261;46.086;6.588;2023-03-31T17:42:09;2.75;1.75;1.00
67376;PMS7003;54261;46.086;6.588;2023-03-31T17:47:12;1.25;1.00;0.00
67376;PMS7003;54261;46.086;6.588;2023-03-31T17:52:14;1.00;1.00;0.00
67376;PMS7003;54261;46.086;6.588;2023-03-31T17:57:15;0.00;0.00;0.00
67376;PMS7003;54261;46.086;6.588;2023-03-31T18:02:17;1.00;1.00;0.75
67376;PMS7003;54261;46.086;6.588;2023-03-31T18:07:20;0.50;0.50;0.00
67376;PMS7003;54261;46.086;6.588;2023-03-31T18:12:23;5.75;3.00;2.00
67376;PMS7003;54261;46.086;6.588;2023-03-31T18:17:25;2.00;1.00;0.00
67376;PMS7003;54261;46.086;6.588;2023-03-31T18:22:30;0.00;0.00;0.00
67376;PMS7003;54261;46.086;6.588;2023-03-31T18:27:33;0.00;0.00;0.00
67376;PMS7003;54261;46.086;6.588;2023-03-31T18:32:35;1.00;1.00;0.00
67376;PMS7003;54261;46.086;6.588;2023-03-31T18:37:37;0.00;0.00;0.00
67376;PMS7003;54261;46.086;6.588;2023-03-31T18:42:40;1.50;1.00;0.75
67376;PMS7003;54261;46.086;6.588;2023-03-31T18:47:42;0.00;0.00;0.00
67376;PMS7003;54261;46.086;6.588;2023-03-31T18:52:44;0.00;0.00;0.00
67376;PMS7003;54261;46.086;6.588;2023-03-31T18:57:49;0.00;0.00;0.00
67376;PMS7003;54261;46.086;6.588;2023-03-31T19:02:51;0.00;0.00;0.00
67376;PMS7003;54261;46.086;6.588;2023-03-31T19:07:54;1.00;0.00;0.00
67376;PMS7003;54261;46.086;6.588;2023-03-31T19:12:55;0.00;0.00;0.00
67376;PMS7003;54261;46.086;6.588;2023-03-31T19:17:57;0.00;0.00;0.00
67376;PMS7003;54261;46.086;6.588;2023-03-31T19:22:59;1.00;0.00;0.00
67376;PMS7003;54261;46.086;6.588;2023-03-31T19:28:02;1.75;1.75;1.00
67376;PMS7003;54261;46.086;6.588;2023-03-31T19:33:04;0.00;0.00;0.00
67376;PMS7003;54261;46.086;6.588;2023-03-31T19:38:06;0.00;0.00;0.00
67376;PMS7003;54261;46.086;6.588;2023-03-31T19:43:18;1.75;1.75;1.00
67376;PMS7003;54261;46.086;6.588;2023-03-31T19:48:23;0.00;0.00;0.00
67376;PMS7003;54261;46.086;6.588;2023-03-31T19:53:26;0.00;0.00;0.00
67376;PMS7003;54261;46.086;6.588;2023-03-31T19:58:29;1.00;0.25;0.00
67376;PMS7003;54261;46.086;6.588;2023-03-31T20:03:31;0.50;0.00;0.00
67376;PMS7003;54261;46.086;6.588;2023-03-31T20:08:34;0.00;0.00;0.00
67376;PMS7003;54261;46.086;6.588;2023-03-31T20:13:37;0.75;0.75;0.00
67376;PMS7003;54261;46.086;6.588;2023-03-31T20:18:40;1.00;1.00;0.00
67376;PMS7003;54261;46.086;6.588;2023-03-31T20:23:48;1.00;1.00;1.00
67376;PMS7003;54261;46.086;6.588;2023-03-31T20:28:50;1.00;1.00;0.25
67376;PMS7003;54261;46.086;6.588;2023-03-31T20:33:52;1.00;1.00;0.75
67376;PMS7003;54261;46.086;6.588;2023-03-31T20:38:56;1.00;1.00;1.00
67376;PMS7003;54261;46.086;6.588;2023-03-31T20:43:59;0.00;0.00;0.00
67376;PMS7003;54261;46.086;6.588;2023-03-31T20:49:02;3.00;2.00;1.00
67376;PMS7003;54261;46.086;6.588;2023-03-31T20:54:04;0.25;0.25;0.25
67376;PMS7003;54261;46.086;6.588;2023-03-31T20:59:09;0.00;0.00;0.00
67376;PMS7003;54261;46.086;6.588;2023-03-31T21:04:12;1.25;1.25;1.00
67376;PMS7003;54261;46.086;6.588;2023-03-31T21:09:14;1.50;0.75;0.00
67376;PMS7003;54261;46.086;6.588;2023-03-31T21:14:17;5.75;5.50;3.00
67376;PMS7003;54261;46.086;6.588;2023-03-31T21:19:18;1.75;1.00;1.00
67376;PMS7003;54261;46.086;6.588;2023-03-31T21:24:20;6.25;2.00;2.00
67376;PMS7003;54261;46.086;6.588;2023-03-31T21:29:22;0.50;0.50;0.00
67376;PMS7003;54261;46.086;6.588;2023-03-31T21:34:24;0.00;0.00;0.00
67376;PMS7003;54261;46.086;6.588;2023-03-31T21:39:26;0.00;0.00;0.00
67376;PMS7003;54261;46.086;6.588;2023-03-31T21:44:28;1.00;1.00;1.00
67376;PMS7003;54261;46.086;6.588;2023-03-31T21:49:30;0.00;0.00;0.00
67376;PMS7003;54261;46.086;6.588;2023-03-31T21:54:32;0.00;0.00;0.00
67376;PMS7003;54261;46.086;6.588;2023-03-31T21:59:34;0.00;0.00;0.00
67376;PMS7003;54261;46.086;6.588;2023-03-31T22:04:36;0.00;0.00;0.00
67376;PMS7003;54261;46.086;6.588;2023-03-31T22:09:38;2.25;2.25;1.75
67376;PMS7003;54261;46.086;6.588;2023-03-31T22:14:40;0.00;0.00;0.00
67376;PMS7003;54261;46.086;6.588;2023-03-31T22:19:42;1.75;1.75;1.00
67376;PMS7003;54261;46.086;6.588;2023-03-31T22:24:43;2.00;2.00;1.75
67376;PMS7003;54261;46.086;6.588;2023-03-31T22:29:45;1.00;1.00;1.00
67376;PMS7003;54261;46.086;6.588;2023-03-31T22:34:47;3.00;1.00;1.00
67376;PMS7003;54261;46.086;6.588;2023-03-31T22:39:49;1.25;1.25;1.00
67376;PMS7003;54261;46.086;6.588;2023-03-31T22:44:51;1.00;1.00;1.00
67376;PMS7003;54261;46.086;6.588;2023-03-31T22:49:53;0.00;0.00;0.00
67376;PMS7003;54261;46.086;6.588;2023-03-31T22:54:54;0.00;0.00;0.00
67376;PMS7003;54261;46.086;6.588;2023-03-31T22:59:56;0.00;0.00;0.00
67376;PMS7003;54261;46.086;6.588;2023-03-31T23:04:58;1.00;0.00;0.00
67376;PMS7003;54261;46.086;6.588;2023-03-31T23:10:00;0.00;0.00;0.00
67376;PMS7003;54261;46.086;6.588;2023-03-31T23:15:02;0.00;0.00;0.00
67376;PMS7003;54261;46.086;6.588;2023-03-31T23:20:04;1.00;0.00;0.00
67376;PMS7003;54261;46.086;6.588;2023-03-31T23:25:06;0.00;0.00;0.00
67376;PMS7003;54261;46.086;6.588;2023-03-31T23:30:08;0.00;0.00;0.00
67376;PMS7003;54261;46.086;6.588;2023-03-31T23:35:10;0.00;0.00;0.00
67376;PMS7003;54261;46.086;6.588;2023-03-31T23:40:12;0.00;0.00;0.00
67376;PMS7003;54261;46.086;6.588;2023-03-31T23:45:14;0.00;0.00;0.00
67376;PMS7003;54261;46.086;6.588;2023-03-31T23:50:16;0.00;0.00;0.00
67376;PMS7003;54261;46.086;6.588;2023-03-31T23:55:18;1.00;0.00;0.00
